Glenwood Springs, CO

10:19 AM MST on January 31, 2015 (GMT -0700)
Garfield County Regional | Change Station
CLOSE
Current Station
Airport
Location: Rifle,
Elevation: 5541 ft
Nearby Weather Stations

Elev 5541 ft 39.52 °N, 107.73 °W | Updated 12 minutes ago

Snow
Snow
34 °F
Feels Like 34 °F
N
0
Wind Variable Wind from North

Today
High -- | Low -- °F
--% Chance of Precip.
Yesterday
High -- | Low -- °F
Precip. -- in
7:17 AM 5:28 PM
Waxing Gibbous, 90% visible
Pressure 29.93 in
Visibility 6.0 miles
Clouds Mostly Cloudy 300 ft
Overcast 1900 ft
Dew Point 33 °F
Humidity 96%
Rainfall 0.15 in
Snow Depth Not available.
UV 1 out of 12
Pollen 1.00 out of 12
Air Quality Not available.
Flu Activity Not available.
SPECI KRIL 311707Z AUTO 00000KT 6SM -RA BR BKN003 OVC019 01/01 A2993 RMK AO2 P0000 T00110006

More Conditions Fewer Conditions

Pressure 29.93 in
Visibility 6.0 miles
Clouds Mostly Cloudy 300 ft
Overcast 1900 ft
Dew Point 33 °F
Humidity 96%
Rainfall 0.15 in
Snow Depth Not available.
UV 1 out of 12
Pollen 1.00 out of 12
Air Quality Not available.
Flu Activity Not available.
SPECI KRIL 311707Z AUTO 00000KT 6SM -RA BR BKN003 OVC019 01/01 A2993 RMK AO2 P0000 T00110006

More Conditions Fewer Conditions

10-Day Weather Forecast

Almanac

Astronomy

Jan. 31, 2015 Rise Set
Actual Time
Civil Twilight
Nautical Twilight
Astronomical Twilight
Moon
Length of Visible Light
Length of Day
Tomorrow will be .
, % of the Moon is Illuminated

Today's Extremes

State Highs State Lows

Community

WunderPhotos

Upload Photos

1,792,122 photos uploaded!

WunderBlogs® & News

Nearby

Air Quality

  Air Quality AQ Index Pollutant
Not available.

Snow Depth

Station Depth Elevation

Earthquake Activity

City Distance Mag. Time & Date
Minimum magnitude displayed is 2.5.

Coastal Water Temperatures

Place Temperature

Nearby Weather Stations